Time;durP1;ratioP1;P1;durP2;ratioP2;P2;SDS_P1;SDS_P2;PMS_P1;PMS_P2;Temp;Humidity;BMP_temperature;BMP_pressure;BME280_temperature;BME280_humidity;BME280_pressure;Samples;Min_cycle;Max_cycle;Signal;HPM_P1;HPM_P2
2022/11/24 00:01:14;;;;;;;17.93;8.90;;;;;;;;;;1843008;75;21021;-52
2022/11/24 00:03:40;;;;;;;12.57;8.93;;;;;;;;;;1848745;75;22616;-53
2022/11/24 00:06:09;;;;;;;15.70;8.80;;;;;;;;;;1852333;75;21501;-52
2022/11/24 00:08:36;;;;;;;12.03;7.17;;;;;;;;;;1848454;75;20974;-53
2022/11/24 00:11:04;;;;;;;12.67;7.63;;;;;;;;;;1852370;76;21071;-53
2022/11/24 00:13:32;;;;;;;10.70;6.60;;;;;;;;;;1848025;75;21067;-53
2022/11/24 00:16:17;;;;;;;11.30;6.97;;;;;;;;;;1849372;75;21826;-53
2022/11/24 00:18:46;;;;;;;8.53;5.83;;;;;;;;;;1846134;75;21068;-54
2022/11/24 00:21:13;;;;;;;10.70;6.37;;;;;;;;;;1843964;75;21794;-54
2022/11/24 00:23:41;;;;;;;13.73;6.90;;;;;;;;;;1844701;75;22328;-54
2022/11/24 00:26:18;;;;;;;9.63;5.50;;;;;;;;;;1835928;75;21056;-55
2022/11/24 00:28:46;;;;;;;12.00;7.03;;;;;;;;;;1844089;75;21848;-54
2022/11/24 00:31:27;;;;;;;11.73;6.27;;;;;;;;;;1839462;76;21056;-54
2022/11/24 00:33:55;;;;;;;6.67;4.73;;;;;;;;;;1843225;75;21037;-54
2022/11/24 00:36:22;;;;;;;8.90;5.87;;;;;;;;;;1842754;75;21113;-54
2022/11/24 00:38:56;;;;;;;10.97;6.23;;;;;;;;;;1843180;75;21047;-54
2022/11/24 00:41:23;;;;;;;11.53;6.45;;;;;;;;;;1842732;76;21784;-54
2022/11/24 00:43:49;;;;;;;12.83;7.13;;;;;;;;;;1845079;75;21048;-54
2022/11/24 00:46:15;;;;;;;10.60;6.23;;;;;;;;;;1845942;75;21268;-54
2022/11/24 00:51:12;;;;;;;12.53;7.23;;;;;;;;;;1787584;78;27444;-54
2022/11/24 00:53:39;;;;;;;9.17;5.60;;;;;;;;;;1770971;79;21056;-54
2022/11/24 00:56:05;;;;;;;13.07;6.00;;;;;;;;;;1762488;79;21815;-54
2022/11/24 00:58:33;;;;;;;9.97;6.00;;;;;;;;;;1766280;79;21375;-54
2022/11/24 01:01:06;;;;;;;15.03;7.60;;;;;;;;;;1766911;79;21084;-54
2022/11/24 01:03:32;;;;;;;9.10;5.43;;;;;;;;;;1768086;79;21073;-55
2022/11/24 01:06:07;;;;;;;10.57;6.00;;;;;;;;;;1768589;79;21050;-55
2022/11/24 01:08:35;;;;;;;11.00;6.57;;;;;;;;;;1754379;79;21904;-54
2022/11/24 01:11:12;;;;;;;10.33;6.17;;;;;;;;;;1768576;79;21539;-54
2022/11/24 01:13:38;;;;;;;12.63;6.77;;;;;;;;;;1767792;79;21133;-53
2022/11/24 01:16:05;;;;;;;11.83;7.50;;;;;;;;;;1765492;79;22543;-52
2022/11/24 01:18:31;;;;;;;11.50;7.33;;;;;;;;;;1765312;79;21111;-52
2022/11/24 01:20:58;;;;;;;12.47;8.67;;;;;;;;;;1764939;79;21850;-53
2022/11/24 01:23:24;;;;;;;14.53;8.73;;;;;;;;;;1765858;79;21317;-53
2022/11/24 01:25:50;;;;;;;12.27;8.03;;;;;;;;;;1760055;79;21097;-54
2022/11/24 01:28:16;;;;;;;12.97;7.83;;;;;;;;;;1768049;79;21029;-53
2022/11/24 01:30:43;;;;;;;10.37;6.50;;;;;;;;;;1768072;79;21097;-54
2022/11/24 01:33:09;;;;;;;11.80;7.30;;;;;;;;;;1771902;79;23238;-53
2022/11/24 01:35:35;;;;;;;12.10;7.33;;;;;;;;;;1739778;80;21081;-54
2022/11/24 01:38:01;;;;;;;13.17;8.10;;;;;;;;;;1730303;81;20980;-54
2022/11/24 01:40:28;;;;;;;13.13;7.70;;;;;;;;;;1737141;81;22058;-53
2022/11/24 01:42:54;;;;;;;12.63;7.57;;;;;;;;;;1734952;80;21056;-53
2022/11/24 01:45:35;;;;;;;10.93;7.10;;;;;;;;;;1727050;81;21354;-54
2022/11/24 01:48:04;;;;;;;10.77;6.43;;;;;;;;;;1734137;81;21059;-54
2022/11/24 01:50:30;;;;;;;9.63;6.63;;;;;;;;;;1725251;81;21057;-54
2022/11/24 01:52:56;;;;;;;8.97;6.13;;;;;;;;;;1718365;82;21544;-54
2022/11/24 01:55:26;;;;;;;10.93;7.50;;;;;;;;;;1716605;82;21081;-54
2022/11/24 01:58:07;;;;;;;10.80;7.87;;;;;;;;;;1720014;82;21837;-54
2022/11/24 02:00:34;;;;;;;13.00;8.53;;;;;;;;;;1718224;82;21130;-54
2022/11/24 02:03:00;;;;;;;13.73;7.80;;;;;;;;;;1716157;82;21008;-53
2022/11/24 02:05:50;;;;;;;15.00;7.73;;;;;;;;;;1722683;82;21077;-53
2022/11/24 02:08:20;;;;;;;14.53;8.77;;;;;;;;;;1719638;82;22354;-53
2022/11/24 02:10:48;;;;;;;11.87;8.40;;;;;;;;;;1724913;81;20985;-54
2022/11/24 02:13:14;;;;;;;15.07;9.33;;;;;;;;;;1725611;82;21409;-55
2022/11/24 02:15:41;;;;;;;16.47;9.70;;;;;;;;;;1691533;83;21057;-54
2022/11/24 02:18:09;;;;;;;13.87;8.73;;;;;;;;;;1664403;84;21042;-55
2022/11/24 02:20:35;;;;;;;17.10;11.30;;;;;;;;;;1706925;83;21743;-54
2022/11/24 02:23:09;;;;;;;16.20;9.37;;;;;;;;;;1703560;83;22557;-53
2022/11/24 02:25:57;;;;;;;16.37;9.23;;;;;;;;;;1698458;83;21065;-54
2022/11/24 02:28:23;;;;;;;17.00;10.10;;;;;;;;;;1698099;82;21060;-54
2022/11/24 02:30:49;;;;;;;15.00;9.50;;;;;;;;;;1705945;83;21079;-54
2022/11/24 02:33:16;;;;;;;14.13;9.90;;;;;;;;;;1707257;83;21143;-54
2022/11/24 02:35:42;;;;;;;15.50;8.60;;;;;;;;;;1681267;83;21823;-54
2022/11/24 02:38:11;;;;;;;15.10;10.80;;;;;;;;;;1680207;83;21085;-54
2022/11/24 02:40:37;;;;;;;12.57;8.17;;;;;;;;;;1686770;83;21439;-54
2022/11/24 02:43:06;;;;;;;11.90;8.30;;;;;;;;;;1676224;83;21486;-54
2022/11/24 02:45:33;;;;;;;15.70;8.83;;;;;;;;;;1683335;83;21041;-53
2022/11/24 02:47:59;;;;;;;15.20;8.83;;;;;;;;;;1673423;83;21835;-53
2022/11/24 02:50:25;;;;;;;13.70;9.17;;;;;;;;;;1683894;83;21084;-53
2022/11/24 02:52:51;;;;;;;14.40;9.27;;;;;;;;;;1681238;83;21574;-53
2022/11/24 02:55:19;;;;;;;13.63;7.53;;;;;;;;;;1678270;83;21084;-53
2022/11/24 02:57:46;;;;;;;14.90;9.30;;;;;;;;;;1681843;83;21118;-52
2022/11/24 03:00:13;;;;;;;14.93;9.33;;;;;;;;;;1686454;83;21877;-52
2022/11/24 03:02:39;;;;;;;13.63;8.33;;;;;;;;;;1680206;83;21091;-53
2022/11/24 03:05:08;;;;;;;11.17;7.57;;;;;;;;;;1675812;83;21087;-53
2022/11/24 03:07:35;;;;;;;10.50;7.50;;;;;;;;;;1680822;83;21122;-53
2022/11/24 03:10:01;;;;;;;12.53;9.27;;;;;;;;;;1683956;83;21114;-52
2022/11/24 03:12:27;;;;;;;14.30;9.03;;;;;;;;;;1711557;82;21677;-53
2022/11/24 03:14:53;;;;;;;16.03;9.63;;;;;;;;;;1711169;82;21122;-52
2022/11/24 03:17:19;;;;;;;16.00;10.33;;;;;;;;;;1708530;82;21059;-53
2022/11/24 03:19:46;;;;;;;13.67;9.27;;;;;;;;;;1705958;82;21039;-54
2022/11/24 03:22:13;;;;;;;13.33;8.80;;;;;;;;;;1714501;82;21524;-53
2022/11/24 03:24:39;;;;;;;14.47;9.90;;;;;;;;;;1710442;82;21930;-54
2022/11/24 03:27:05;;;;;;;15.47;10.10;;;;;;;;;;1711678;82;21034;-53
2022/11/24 03:29:31;;;;;;;17.13;10.57;;;;;;;;;;1710642;82;21503;-54
2022/11/24 03:31:57;;;;;;;17.37;11.33;;;;;;;;;;1709844;82;21524;-53
2022/11/24 03:34:24;;;;;;;17.07;10.20;;;;;;;;;;1711782;82;21540;-53
2022/11/24 03:36:50;;;;;;;15.30;10.60;;;;;;;;;;1713946;82;21910;-52
2022/11/24 03:39:16;;;;;;;14.40;9.37;;;;;;;;;;1711107;82;22358;-53
2022/11/24 03:41:42;;;;;;;12.90;9.17;;;;;;;;;;1710684;82;21055;-53
2022/11/24 03:44:08;;;;;;;14.57;10.23;;;;;;;;;;1710963;82;21127;-54
2022/11/24 03:46:35;;;;;;;16.47;10.93;;;;;;;;;;1710672;82;21591;-53
2022/11/24 03:49:01;;;;;;;14.23;9.57;;;;;;;;;;1706916;82;21843;-54
2022/11/24 03:51:27;;;;;;;17.37;10.83;;;;;;;;;;1721524;82;21048;-53
2022/11/24 03:53:54;;;;;;;13.07;9.13;;;;;;;;;;1711172;82;21034;-53
2022/11/24 03:56:20;;;;;;;11.97;8.47;;;;;;;;;;1711206;82;21045;-53
2022/11/24 03:58:46;;;;;;;14.07;10.73;;;;;;;;;;1710166;82;21031;-53
2022/11/24 04:01:13;;;;;;;12.03;7.80;;;;;;;;;;1713531;82;21845;-53
2022/11/24 04:03:39;;;;;;;14.27;9.97;;;;;;;;;;1712742;82;21512;-53
2022/11/24 04:06:05;;;;;;;17.27;10.63;;;;;;;;;;1708887;82;21044;-53
2022/11/24 04:08:31;;;;;;;14.07;9.87;;;;;;;;;;1711598;82;21012;-53
2022/11/24 04:10:59;;;;;;;14.77;9.60;;;;;;;;;;1671740;83;21082;-52
2022/11/24 04:13:26;;;;;;;14.10;9.17;;;;;;;;;;1690209;83;21831;-53
2022/11/24 04:15:54;;;;;;;13.60;9.07;;;;;;;;;;1711189;82;21714;-53
2022/11/24 04:18:20;;;;;;;13.73;9.03;;;;;;;;;;1713249;82;21003;-53
2022/11/24 04:20:50;;;;;;;13.27;7.77;;;;;;;;;;1708309;82;21047;-53
2022/11/24 04:23:17;;;;;;;11.27;7.90;;;;;;;;;;1713675;82;21075;-54
2022/11/24 04:25:43;;;;;;;8.97;7.43;;;;;;;;;;1711797;82;21814;-54
2022/11/24 04:28:10;;;;;;;13.87;9.13;;;;;;;;;;1712239;82;21035;-53
2022/11/24 04:30:37;;;;;;;10.70;8.00;;;;;;;;;;1713778;82;21485;-53
2022/11/24 04:33:04;;;;;;;11.60;8.10;;;;;;;;;;1713424;82;21035;-54
2022/11/24 04:35:30;;;;;;;10.17;7.03;;;;;;;;;;1708404;82;21035;-53
2022/11/24 04:37:56;;;;;;;10.10;7.23;;;;;;;;;;1706932;82;21795;-54
2022/11/24 04:40:22;;;;;;;10.20;6.27;;;;;;;;;;1709762;82;20988;-54
2022/11/24 04:42:54;;;;;;;7.67;5.87;;;;;;;;;;1707225;82;21107;-54
2022/11/24 04:45:21;;;;;;;11.30;7.83;;;;;;;;;;1708752;82;21067;-53
2022/11/24 04:47:47;;;;;;;8.00;5.37;;;;;;;;;;1710473;82;21106;-53
2022/11/24 04:50:14;;;;;;;11.20;7.20;;;;;;;;;;1710798;82;21923;-54
2022/11/24 04:52:40;;;;;;;9.60;6.53;;;;;;;;;;1711821;82;21020;-54
2022/11/24 04:55:07;;;;;;;9.73;5.77;;;;;;;;;;1711479;82;21560;-54
2022/11/24 04:57:34;;;;;;;10.30;6.53;;;;;;;;;;1714377;82;21559;-54
2022/11/24 05:00:00;;;;;;;10.07;7.00;;;;;;;;;;1709364;82;21050;-53
2022/11/24 05:02:26;;;;;;;10.77;7.33;;;;;;;;;;1709478;82;21833;-53
2022/11/24 05:04:53;;;;;;;10.53;8.27;;;;;;;;;;1707681;82;21172;-54
2022/11/24 05:07:19;;;;;;;11.00;8.30;;;;;;;;;;1711153;82;21611;-54
2022/11/24 05:12:31;;;;;;;9.73;7.30;;;;;;;;;;1702904;82;21161;-54
2022/11/24 05:14:58;;;;;;;9.13;6.87;;;;;;;;;;1686099;83;23178;-55
2022/11/24 05:17:30;;;;;;;9.23;6.13;;;;;;;;;;1693280;82;21140;-54
2022/11/24 05:19:56;;;;;;;9.30;6.17;;;;;;;;;;1684734;83;21514;-54
2022/11/24 05:22:23;;;;;;;9.20;7.10;;;;;;;;;;1683085;83;21072;-54
2022/11/24 05:24:49;;;;;;;7.57;6.30;;;;;;;;;;1692142;83;21132;-54
2022/11/24 05:27:16;;;;;;;10.03;7.10;;;;;;;;;;1690717;83;22444;-54
2022/11/24 05:29:42;;;;;;;9.17;6.90;;;;;;;;;;1691154;83;21095;-54
2022/11/24 05:32:08;;;;;;;8.93;6.27;;;;;;;;;;1686930;83;21100;-55
2022/11/24 05:34:35;;;;;;;7.87;5.77;;;;;;;;;;1688016;83;21095;-54
2022/11/24 05:37:02;;;;;;;7.87;5.77;;;;;;;;;;1687443;83;21088;-55
2022/11/24 05:39:33;;;;;;;7.67;5.13;;;;;;;;;;1684559;83;21868;-54
2022/11/24 05:42:39;;;;;;;5.53;4.50;;;;;;;;;;1698544;83;21460;-55
2022/11/24 05:44:28;;;;;;;5.23;4.13;;;;;;;;;;1628913;85;21367;-55
2022/11/24 05:46:54;;;;;;;8.33;5.77;;;;;;;;;;1690956;83;21123;-55
2022/11/24 05:49:20;;;;;;;5.47;4.53;;;;;;;;;;1683040;83;21132;-55
2022/11/24 05:51:46;;;;;;;6.63;5.47;;;;;;;;;;1661338;84;21927;-53
2022/11/24 05:54:13;;;;;;;5.33;4.00;;;;;;;;;;1691992;82;21029;-55
2022/11/24 05:56:39;;;;;;;4.07;3.67;;;;;;;;;;1682109;83;21085;-53
2022/11/24 05:59:05;;;;;;;4.83;3.10;;;;;;;;;;1690756;83;21061;-55
2022/11/24 06:01:32;;;;;;;3.50;3.00;;;;;;;;;;1685485;83;21108;-55
2022/11/24 06:03:58;;;;;;;4.67;4.17;;;;;;;;;;1701518;83;21897;-54
2022/11/24 06:06:24;;;;;;;5.07;4.13;;;;;;;;;;1689947;82;21074;-55
2022/11/24 06:08:52;;;;;;;5.03;3.97;;;;;;;;;;1686866;83;21065;-55
2022/11/24 06:11:18;;;;;;;4.33;3.63;;;;;;;;;;1687545;83;21041;-54
2022/11/24 06:13:47;;;;;;;4.00;3.40;;;;;;;;;;1691990;83;21143;-55
2022/11/24 06:16:13;;;;;;;5.27;3.57;;;;;;;;;;1706499;82;21862;-54
2022/11/24 06:18:39;;;;;;;3.90;2.70;;;;;;;;;;1708565;82;21261;-55
2022/11/24 06:21:06;;;;;;;3.70;3.10;;;;;;;;;;1710482;82;20984;-55
2022/11/24 06:23:32;;;;;;;3.10;2.10;;;;;;;;;;1711066;82;21509;-54
2022/11/24 06:25:59;;;;;;;4.47;3.10;;;;;;;;;;1713428;82;21062;-55
2022/11/24 06:28:26;;;;;;;4.10;2.97;;;;;;;;;;1709958;82;22642;-52
2022/11/24 06:30:52;;;;;;;3.83;3.20;;;;;;;;;;1710716;82;21508;-54
2022/11/24 06:33:18;;;;;;;4.87;3.00;;;;;;;;;;1712628;82;21031;-55
2022/11/24 06:35:45;;;;;;;5.50;3.47;;;;;;;;;;1707523;82;21325;-54
2022/11/24 06:38:11;;;;;;;3.90;2.93;;;;;;;;;;1717483;82;21124;-54
2022/11/24 06:40:37;;;;;;;4.03;2.60;;;;;;;;;;1705994;82;21907;-54
2022/11/24 06:43:03;;;;;;;1.93;1.70;;;;;;;;;;1710272;82;21105;-54
2022/11/24 06:45:29;;;;;;;2.73;2.20;;;;;;;;;;1708555;82;21126;-54
2022/11/24 06:47:55;;;;;;;2.77;2.03;;;;;;;;;;1709578;82;21433;-54
2022/11/24 06:50:22;;;;;;;2.53;2.20;;;;;;;;;;1711557;82;21489;-53
2022/11/24 06:52:48;;;;;;;3.07;2.17;;;;;;;;;;1711459;82;21935;-55
2022/11/24 06:55:14;;;;;;;2.30;1.53;;;;;;;;;;1646910;85;21179;-56
2022/11/24 06:57:41;;;;;;;2.10;1.90;;;;;;;;;;1711825;82;21559;-54
2022/11/24 07:02:15;;;;;;;2.50;2.27;;;;;;;;;;1778962;78;27332;-55
2022/11/24 07:04:41;;;;;;;2.23;1.63;;;;;;;;;;1753419;80;21109;-54
2022/11/24 07:07:08;;;;;;;2.80;2.47;;;;;;;;;;1756252;79;21230;-54
2022/11/24 07:09:34;;;;;;;2.77;2.00;;;;;;;;;;1759070;79;21538;-55
2022/11/24 07:12:01;;;;;;;2.20;1.93;;;;;;;;;;1757494;79;21119;-55
2022/11/24 07:14:27;;;;;;;4.30;2.80;;;;;;;;;;1760641;79;21316;-55
2022/11/24 07:16:53;;;;;;;1.83;1.63;;;;;;;;;;1757793;79;21223;-54
2022/11/24 07:19:20;;;;;;;2.70;2.40;;;;;;;;;;1761040;80;21903;-54
2022/11/24 07:21:46;;;;;;;3.63;2.20;;;;;;;;;;1761293;80;21141;-54
2022/11/24 07:24:12;;;;;;;3.70;1.87;;;;;;;;;;1753149;80;21069;-54
2022/11/24 07:26:40;;;;;;;2.73;2.03;;;;;;;;;;1752438;79;20983;-54
2022/11/24 07:29:06;;;;;;;3.97;2.70;;;;;;;;;;1753776;79;21109;-55
2022/11/24 07:31:32;;;;;;;2.30;1.83;;;;;;;;;;1757686;79;21901;-54
2022/11/24 07:33:58;;;;;;;3.77;2.63;;;;;;;;;;1755248;79;21063;-54
2022/11/24 07:36:25;;;;;;;3.10;2.70;;;;;;;;;;1749077;79;21034;-54
2022/11/24 07:38:52;;;;;;;4.80;3.43;;;;;;;;;;1750888;79;21102;-54
2022/11/24 07:41:18;;;;;;;4.17;2.97;;;;;;;;;;1747403;79;21045;-55
2022/11/24 07:43:44;;;;;;;3.97;3.67;;;;;;;;;;1741992;79;22398;-55
2022/11/24 07:46:12;;;;;;;4.73;3.00;;;;;;;;;;1746963;79;21572;-54
2022/11/24 07:48:38;;;;;;;4.57;3.93;;;;;;;;;;1749201;79;22169;-54
2022/11/24 07:51:07;;;;;;;5.07;3.57;;;;;;;;;;1748298;79;21075;-55
2022/11/24 07:53:34;;;;;;;3.67;2.63;;;;;;;;;;1744368;79;21013;-54
2022/11/24 07:56:01;;;;;;;3.90;3.37;;;;;;;;;;1746674;79;22455;-53
2022/11/24 07:58:29;;;;;;;4.27;3.43;;;;;;;;;;1743679;79;21056;-54
2022/11/24 08:00:55;;;;;;;4.67;3.93;;;;;;;;;;1743533;79;21535;-54
2022/11/24 08:03:21;;;;;;;5.20;3.67;;;;;;;;;;1734852;80;21033;-54
2022/11/24 08:05:56;;;;;;;5.80;4.10;;;;;;;;;;1728194;80;21060;-53
2022/11/24 08:08:22;;;;;;;6.28;4.40;;;;;;;;;;1733229;80;21769;-54
2022/11/24 08:10:48;;;;;;;5.37;4.10;;;;;;;;;;1740656;80;21077;-54
2022/11/24 08:13:15;;;;;;;4.40;3.40;;;;;;;;;;1731777;80;21044;-54
2022/11/24 08:15:41;;;;;;;5.33;3.57;;;;;;;;;;1730095;80;21053;-53
2022/11/24 08:18:07;;;;;;;6.83;3.33;;;;;;;;;;1734436;80;21065;-54
2022/11/24 08:20:33;;;;;;;7.67;3.63;;;;;;;;;;1732893;80;21819;-54
2022/11/24 08:23:00;;;;;;;4.20;3.47;;;;;;;;;;1738095;80;21105;-53
2022/11/24 08:25:31;;;;;;;3.87;3.37;;;;;;;;;;1738506;80;22730;-56
2022/11/24 08:27:54;;;;;;;3.00;2.20;;;;;;;;;;1736494;79;21068;-54
2022/11/24 08:30:20;;;;;;;5.87;4.33;;;;;;;;;;1732134;80;21402;-53
2022/11/24 08:32:47;;;;;;;7.73;3.67;;;;;;;;;;1738662;80;21876;-53
2022/11/24 08:35:13;;;;;;;4.50;3.67;;;;;;;;;;1732806;80;21038;-53
2022/11/24 08:37:39;;;;;;;3.70;3.40;;;;;;;;;;1732404;80;21121;-54
2022/11/24 08:40:07;;;;;;;4.67;3.03;;;;;;;;;;1730777;80;21354;-54
2022/11/24 08:42:33;;;;;;;4.67;3.77;;;;;;;;;;1732434;80;21105;-53
2022/11/24 08:44:59;;;;;;;5.70;3.63;;;;;;;;;;1733739;80;21855;-53
2022/11/24 08:47:25;;;;;;;4.63;3.80;;;;;;;;;;1735948;80;21041;-54
2022/11/24 08:49:52;;;;;;;4.00;3.57;;;;;;;;;;1728318;80;21041;-54
2022/11/24 08:52:19;;;;;;;4.47;3.63;;;;;;;;;;1733848;80;21049;-54
2022/11/24 08:54:45;;;;;;;5.13;2.97;;;;;;;;;;1730626;80;21585;-54
2022/11/24 08:57:15;;;;;;;4.93;4.00;;;;;;;;;;1735537;80;21868;-54
2022/11/24 08:59:41;;;;;;;3.30;2.93;;;;;;;;;;1736509;80;21056;-54
2022/11/24 09:02:10;;;;;;;5.53;3.60;;;;;;;;;;1743834;79;21042;-54
2022/11/24 09:04:37;;;;;;;3.50;3.07;;;;;;;;;;1724124;81;21069;-55
2022/11/24 09:07:03;;;;;;;4.30;3.33;;;;;;;;;;1741363;80;21038;-54
2022/11/24 09:09:29;;;;;;;5.50;3.10;;;;;;;;;;1747379;80;21849;-55
2022/11/24 09:11:56;;;;;;;3.37;2.57;;;;;;;;;;1751558;79;21105;-56
2022/11/24 09:14:22;;;;;;;4.60;3.97;;;;;;;;;;1748977;80;21055;-55
2022/11/24 09:16:48;;;;;;;3.87;2.97;;;;;;;;;;1746987;79;21998;-56
2022/11/24 09:19:14;;;;;;;5.67;4.30;;;;;;;;;;1748889;79;21148;-56
2022/11/24 09:21:41;;;;;;;7.87;4.07;;;;;;;;;;1744979;80;21817;-55
2022/11/24 09:24:07;;;;;;;3.50;2.87;;;;;;;;;;1744229;79;21093;-57
2022/11/24 09:26:35;;;;;;;4.00;3.03;;;;;;;;;;1759465;79;21088;-57
2022/11/24 09:29:03;;;;;;;3.77;2.63;;;;;;;;;;1752136;79;21016;-57
2022/11/24 09:31:32;;;;;;;2.40;1.90;;;;;;;;;;1749519;79;21142;-57
2022/11/24 09:33:58;;;;;;;3.17;2.47;;;;;;;;;;1748795;79;21773;-55
2022/11/24 09:36:25;;;;;;;4.23;3.30;;;;;;;;;;1742901;80;21089;-56
2022/11/24 09:38:51;;;;;;;2.90;2.37;;;;;;;;;;1748347;80;21077;-56
2022/11/24 09:41:33;;;;;;;5.77;2.57;;;;;;;;;;1749648;79;21054;-55
2022/11/24 09:44:09;;;;;;;4.03;3.63;;;;;;;;;;1749363;80;21042;-55
2022/11/24 09:46:55;;;;;;;4.23;3.37;;;;;;;;;;1748582;80;21777;-55
2022/11/24 09:50:00;;;;;;;4.30;3.40;;;;;;;;;;1747306;79;21003;-56
2022/11/24 09:52:38;;;;;;;4.15;3.52;;;;;;;;;;1748924;79;21058;-56
2022/11/24 09:55:07;;;;;;;4.63;3.00;;;;;;;;;;1748323;80;21119;-56
2022/11/24 09:57:34;;;;;;;3.37;3.00;;;;;;;;;;1741128;79;21054;-56
2022/11/24 10:00:02;;;;;;;5.10;3.47;;;;;;;;;;1695701;82;21840;-56
2022/11/24 10:02:31;;;;;;;5.10;3.63;;;;;;;;;;1734167;80;21081;-56
2022/11/24 10:04:57;;;;;;;4.63;4.23;;;;;;;;;;1733202;80;21066;-57
2022/11/24 10:07:29;;;;;;;4.10;3.57;;;;;;;;;;1729519;80;21073;-57
2022/11/24 10:10:04;;;;;;;6.33;5.37;;;;;;;;;;1731672;80;21056;-56
2022/11/24 10:12:57;;;;;;;3.73;2.83;;;;;;;;;;1731115;80;21836;-56
2022/11/24 10:15:41;;;;;;;4.10;3.23;;;;;;;;;;1737866;80;21093;-55
2022/11/24 10:18:35;;;;;;;3.83;2.92;;;;;;;;;;1731223;80;21038;-55
2022/11/24 10:21:13;;;;;;;3.80;2.87;;;;;;;;;;1731668;80;20978;-55
2022/11/24 10:23:53;;;;;;;3.47;2.17;;;;;;;;;;1731910;80;22359;-56
2022/11/24 10:26:26;;;;;;;4.77;2.47;;;;;;;;;;1734753;80;21755;-55
2022/11/24 10:28:56;;;;;;;3.50;2.83;;;;;;;;;;1735382;80;21967;-56
2022/11/24 10:31:34;;;;;;;4.43;3.60;;;;;;;;;;1727888;80;21080;-56
2022/11/24 10:34:04;;;;;;;4.73;4.20;;;;;;;;;;1733271;80;21574;-55
2022/11/24 10:36:52;;;;;;;5.53;3.87;;;;;;;;;;1735838;80;21030;-55
2022/11/24 10:39:24;;;;;;;3.93;3.53;;;;;;;;;;1692402;82;21640;-55
2022/11/24 10:42:03;;;;;;;4.17;2.97;;;;;;;;;;1740169;80;21026;-56
2022/11/24 10:44:29;;;;;;;4.50;3.23;;;;;;;;;;1733640;80;21035;-54
2022/11/24 10:46:55;;;;;;;2.87;2.40;;;;;;;;;;1734041;80;21030;-56
2022/11/24 10:49:27;;;;;;;6.43;4.43;;;;;;;;;;1730322;80;21522;-55
2022/11/24 10:52:04;;;;;;;4.37;3.30;;;;;;;;;;1731358;80;21820;-54
2022/11/24 10:54:34;;;;;;;4.37;3.73;;;;;;;;;;1732451;80;21081;-55
2022/11/24 10:57:00;;;;;;;2.90;2.67;;;;;;;;;;1733587;80;21551;-56
2022/11/24 10:59:30;;;;;;;4.37;3.73;;;;;;;;;;1729415;80;21022;-55
2022/11/24 11:01:57;;;;;;;6.00;4.43;;;;;;;;;;1730358;80;21077;-54
2022/11/24 11:04:31;;;;;;;8.07;4.30;;;;;;;;;;1735409;80;22516;-54
2022/11/24 11:07:17;;;;;;;3.73;3.43;;;;;;;;;;1737479;80;21529;-55
2022/11/24 11:09:44;;;;;;;3.23;2.90;;;;;;;;;;1736928;80;21262;-56
2022/11/24 11:12:21;;;;;;;3.60;3.00;;;;;;;;;;1738875;80;21059;-55
2022/11/24 11:14:47;;;;;;;3.60;3.03;;;;;;;;;;1739903;80;21040;-54
2022/11/24 11:17:35;;;;;;;3.33;2.20;;;;;;;;;;1737876;80;23053;-55
2022/11/24 11:20:30;;;;;;;3.70;2.40;;;;;;;;;;1738960;80;21091;-55
2022/11/24 11:22:57;;;;;;;3.05;2.75;;;;;;;;;;1734681;80;21129;-55
2022/11/24 11:25:32;;;;;;;4.10;3.27;;;;;;;;;;1743414;80;21041;-55
2022/11/24 11:28:21;;;;;;;6.07;4.60;;;;;;;;;;1737127;80;21051;-55
2022/11/24 11:31:04;;;;;;;7.93;4.13;;;;;;;;;;1673350;83;21857;-55
2022/11/24 11:33:35;;;;;;;5.27;3.97;;;;;;;;;;1739767;80;21044;-55
2022/11/24 11:36:03;;;;;;;5.43;3.77;;;;;;;;;;1736100;80;21113;-54
2022/11/24 11:38:32;;;;;;;8.63;3.93;;;;;;;;;;1739433;80;21512;-54
2022/11/24 11:40:58;;;;;;;6.27;3.97;;;;;;;;;;1738468;80;21162;-54
2022/11/24 11:43:26;;;;;;;4.97;3.57;;;;;;;;;;1742250;80;21811;-55
2022/11/24 11:46:04;;;;;;;6.80;4.43;;;;;;;;;;1735467;80;21506;-54
2022/11/24 11:48:35;;;;;;;8.17;5.57;;;;;;;;;;1739144;80;21081;-53
2022/11/24 11:51:16;;;;;;;9.13;5.97;;;;;;;;;;1742067;80;21071;-53
2022/11/24 11:53:49;;;;;;;10.33;6.97;;;;;;;;;;1746157;80;21010;-55
2022/11/24 11:56:25;;;;;;;9.43;6.97;;;;;;;;;;1736697;80;21890;-54
2022/11/24 11:59:12;;;;;;;7.67;6.33;;;;;;;;;;1741258;80;21028;-54
2022/11/24 12:01:57;;;;;;;7.67;6.23;;;;;;;;;;1742436;80;21072;-53
2022/11/24 12:04:53;;;;;;;6.58;5.12;;;;;;;;;;1742122;80;21041;-56
2022/11/24 12:07:35;;;;;;;7.87;6.13;;;;;;;;;;1738191;80;21038;-54
2022/11/24 12:10:24;;;;;;;7.00;6.00;;;;;;;;;;1731753;80;21829;-56
2022/11/24 12:13:13;;;;;;;4.60;4.07;;;;;;;;;;1696099;82;21103;-55
2022/11/24 12:15:50;;;;;;;6.30;5.07;;;;;;;;;;1634872;85;21106;-55
2022/11/24 12:18:37;;;;;;;5.37;4.87;;;;;;;;;;1731619;80;21051;-54
2022/11/24 12:21:25;;;;;;;6.07;5.43;;;;;;;;;;1733031;80;21089;-53
2022/11/24 12:24:04;;;;;;;6.67;5.90;;;;;;;;;;1732048;80;22767;-54
2022/11/24 12:26:53;;;;;;;9.27;7.50;;;;;;;;;;1738071;80;21054;-55
2022/11/24 12:29:45;;;;;;;9.70;7.17;;;;;;;;;;1738752;80;21488;-54
2022/11/24 12:32:35;;;;;;;7.23;6.50;;;;;;;;;;1735728;80;21055;-54
2022/11/24 12:35:21;;;;;;;8.50;6.77;;;;;;;;;;1734236;80;21077;-53
2022/11/24 12:38:25;;;;;;;10.63;5.77;;;;;;;;;;1735111;80;21981;-53
2022/11/24 12:41:18;;;;;;;8.17;6.27;;;;;;;;;;1733578;80;21173;-54
2022/11/24 12:43:52;;;;;;;11.90;6.87;;;;;;;;;;1727951;80;21534;-54
2022/11/24 12:46:24;;;;;;;8.73;5.80;;;;;;;;;;1734097;80;21743;-53
2022/11/24 12:49:13;;;;;;;8.00;7.10;;;;;;;;;;1685199;80;21069;-54
2022/11/24 12:51:41;;;;;;;9.83;7.23;;;;;;;;;;1730420;80;22301;-53
2022/11/24 12:54:11;;;;;;;12.17;8.00;;;;;;;;;;1730126;80;21096;-53
2022/11/24 12:56:57;;;;;;;15.93;11.67;;;;;;;;;;1732880;80;21670;-54
2022/11/24 12:59:35;;;;;;;20.83;18.50;;;;;;;;;;1700347;80;21468;-54
2022/11/24 13:02:17;;;;;;;18.50;12.93;;;;;;;;;;1726973;80;21006;-54
2022/11/24 13:05:06;;;;;;;10.77;9.07;;;;;;;;;;1700760;80;21848;-54
2022/11/24 13:07:47;;;;;;;10.00;8.23;;;;;;;;;;1733975;80;21101;-54
2022/11/24 13:10:26;;;;;;;12.63;9.40;;;;;;;;;;1734548;80;21034;-54
2022/11/24 13:12:56;;;;;;;12.10;8.80;;;;;;;;;;1733894;80;21112;-53
2022/11/24 13:15:23;;;;;;;18.73;13.80;;;;;;;;;;1737440;80;21057;-53
2022/11/24 13:17:51;;;;;;;16.23;13.47;;;;;;;;;;1730342;80;23448;-53
2022/11/24 13:20:22;;;;;;;13.43;11.47;;;;;;;;;;1730998;80;21047;-52
2022/11/24 13:22:54;;;;;;;16.50;12.83;;;;;;;;;;1732342;80;21393;-53
2022/11/24 13:25:23;;;;;;;29.37;26.33;;;;;;;;;;1736629;80;21053;-54
2022/11/24 13:27:51;;;;;;;16.43;13.13;;;;;;;;;;1737292;80;21041;-53
2022/11/24 13:30:36;;;;;;;13.37;9.60;;;;;;;;;;1731609;80;21957;-54
2022/11/24 13:33:16;;;;;;;14.57;11.10;;;;;;;;;;1730274;80;21606;-54
2022/11/24 13:36:06;;;;;;;15.07;12.57;;;;;;;;;;1734151;80;21042;-54
2022/11/24 13:38:49;;;;;;;15.83;9.77;;;;;;;;;;1709657;80;21602;-53
2022/11/24 13:41:34;;;;;;;9.43;7.13;;;;;;;;;;1734731;80;21501;-54
2022/11/24 13:44:16;;;;;;;8.13;6.93;;;;;;;;;;1736179;80;21938;-54
2022/11/24 13:47:02;;;;;;;11.17;8.30;;;;;;;;;;1721491;80;22376;-52
2022/11/24 13:49:41;;;;;;;10.87;8.63;;;;;;;;;;1732270;80;22364;-54
2022/11/24 13:52:42;;;;;;;11.40;9.27;;;;;;;;;;1732225;80;21069;-54
2022/11/24 13:55:15;;;;;;;18.00;13.63;;;;;;;;;;1737930;80;21917;-54
2022/11/24 13:57:45;;;;;;;17.97;12.90;;;;;;;;;;1733157;80;23234;-53
2022/11/24 14:00:20;;;;;;;16.27;12.53;;;;;;;;;;1734392;80;21641;-54
2022/11/24 14:02:47;;;;;;;16.97;11.73;;;;;;;;;;1737140;80;21093;-54
2022/11/24 14:05:15;;;;;;;20.10;15.20;;;;;;;;;;1738050;80;22192;-54
2022/11/24 14:07:43;;;;;;;26.90;18.60;;;;;;;;;;1746719;80;21057;-55
2022/11/24 14:10:19;;;;;;;25.37;20.33;;;;;;;;;;1745269;80;21843;-54
2022/11/24 14:12:45;;;;;;;20.73;17.23;;;;;;;;;;1743456;80;21582;-54
2022/11/24 14:15:15;;;;;;;16.97;12.30;;;;;;;;;;1749475;80;21536;-54
2022/11/24 14:17:41;;;;;;;17.10;10.93;;;;;;;;;;1742282;80;20966;-54
2022/11/24 14:20:11;;;;;;;15.50;11.23;;;;;;;;;;1749986;80;21026;-53
2022/11/24 14:22:39;;;;;;;18.57;12.37;;;;;;;;;;1744367;80;21830;-53
2022/11/24 14:48:53;;;;;;;13.97;11.63;;;;;;;;;;1759373;79;22733;-52
2022/11/24 14:51:22;;;;;;;13.97;11.50;;;;;;;;;;1743444;80;22241;-53
2022/11/24 14:53:51;;;;;;;18.30;13.60;;;;;;;;;;1778082;78;24303;-52
2022/11/24 14:56:27;;;;;;;15.87;12.93;;;;;;;;;;1746074;80;21039;-54
2022/11/24 14:58:54;;;;;;;18.00;13.57;;;;;;;;;;1745531;80;21479;-52
2022/11/24 15:01:29;;;;;;;18.23;13.40;;;;;;;;;;1744503;80;21100;-53
2022/11/24 15:04:16;;;;;;;21.17;13.93;;;;;;;;;;1743770;80;21097;-52
2022/11/24 15:06:46;;;;;;;25.00;15.40;;;;;;;;;;1745708;80;22417;-54
2022/11/24 15:09:21;;;;;;;24.27;15.97;;;;;;;;;;1744157;80;21062;-53
2022/11/24 15:11:47;;;;;;;22.43;13.83;;;;;;;;;;1745954;80;21064;-52
2022/11/24 15:14:45;;;;;;;24.40;16.17;;;;;;;;;;1742689;80;22454;-53
2022/11/24 15:17:16;;;;;;;26.43;16.37;;;;;;;;;;1740527;80;21315;-52
2022/11/24 15:19:43;;;;;;;28.07;17.40;;;;;;;;;;1748763;80;22598;-52
2022/11/24 15:22:37;;;;;;;28.20;15.80;;;;;;;;;;1704679;81;21033;-52
2022/11/24 15:25:13;;;;;;;25.33;15.00;;;;;;;;;;1749140;80;21069;-53
2022/11/24 15:27:39;;;;;;;18.43;12.50;;;;;;;;;;1736111;80;21040;-53